Beaver Bay, MN

11:57 PM CST on February 06, 2016 (GMT -0600)
Silver Bay Municipal | | Change Station
CLOSE
Current Station
Airport
Location: Silver Bay,
Elevation: 1086 ft
Nearby Weather Stations

Elev 1086 ft 47.25 °N, 91.42 °W | Updated 22 minutes ago

Mostly Cloudy
Mostly Cloudy
32 °F
Feels Like 26 °F
N
7
Wind Variable Wind from South

Today
High -- | Low -- °F
--% Chance of Precip.
Yesterday
High -- | Low -- °F
Precip. -- in
Pressure 29.61 in
Visibility 1.5 miles
Clouds Overcast 500 ft
Windchill 26 °F
Dew Point 30 °F
Humidity 93%
Rainfall 0.08 in
Snow Depth Not available.
7:25 AM 5:14 PM
Waning Crescent, 2% visible
METAR KBFW 070535Z AUTO 18006KT 1 1/2SM -SN OVC005 00/M01 A2961 RMK AO2 P0002
Pressure 29.61 in
Visibility 1.5 miles
Clouds Overcast 500 ft
Windchill 26 °F
Dew Point 30 °F
Humidity 93%
Rainfall 0.08 in
Snow Depth Not available.
7:25 AM 5:14 PM
Waning Crescent, 2% visible
METAR KBFW 070535Z AUTO 18006KT 1 1/2SM -SN OVC005 00/M01 A2961 RMK AO2 P0002

10-Day Weather Forecast

Almanac

Astronomy

Feb. 06, 2016 Rise Set
Actual Time
Civil Twilight
Nautical Twilight
Astronomical Twilight
Moon
Length of Visible Light
Length of Day
Tomorrow will be .
, % of the Moon is Illuminated

Today's Extremes

State Highs State Lows

Community

WunderPhotos

Upload Photos

1,891,167 photos uploaded!

WunderBlog® & News

Nearby

Air Quality

  Air Quality AQ Index Pollutant
Not available.

Snow Depth

Station Depth Elevation

Earthquake Activity

City Distance Mag. Time & Date
Minimum magnitude displayed is 2.5.

Coastal Water Temperatures

Place Temperature

Stations

Nearby Weather Stations

Station Location Temp. Windchill Dew Point Humidity Wind Precip. Elev Updated Type
                   

Watches & Warnings

There are currently no watches in effect.